Accueil
METAR-TAF:

METAR-TAF

Aéroports :

Moundou, Tchad

latitude: 08-37N, longitude: 016-04E, altitude: 428 m

Observation

Le bulletin a été fait il y a 4 heures et 3 minutes, à 15:00 UTC
Vent 8 kt de est/sud-est
Température 40°C
Humidité 38%
Pression 1006 hPa
Visibilité 10 km ou plus
pas de nuages en-dessous de 1500 mètres et pas de cumulonimbus.

METAR: FTTD 291500Z 12008KT CAVOK 40/23 Q1006

Heure: 20:03 (19:03 UTC)


TAF: absent

Observations et prévisions météorologiques de plus de 4000 aéroports (messages METAR et TAF).

Les stations disponibles sont représentées par des disques jaunes et rouges sur la carte.

Passer la souris dessus pour voir le nom de la station.

Cliquer dessus pour voir les observations et prévisions météorologiques.

Pour changer de carte: cliquez sur les boutons verts avec une croix noire pour zoomer, sur le bouton vert avec un tiret pour effectuer un zoom arrière, ou sur les flèches vertes pour les cartes adjacentes.


METAR-TAF: